createdAt,value
2023-04-18T00:01:21.041Z,29.80
2023-04-18T00:03:45.273Z,29.60
2023-04-18T00:06:09.748Z,30.70
2023-04-18T00:08:33.681Z,29.40
2023-04-18T00:10:57.259Z,28.70
2023-04-18T00:13:20.950Z,29.00
2023-04-18T00:15:45.607Z,30.30
2023-04-18T00:18:09.861Z,28.60
2023-04-18T00:20:33.527Z,29.60
2023-04-18T00:23:00.097Z,29.80
2023-04-18T00:25:43.735Z,28.00
2023-04-18T00:28:10.060Z,29.80
2023-04-18T00:30:33.599Z,26.00
2023-04-18T00:32:57.213Z,27.80
2023-04-18T00:35:21.316Z,27.40
2023-04-18T00:37:44.820Z,26.50
2023-04-18T00:40:10.213Z,28.40
2023-04-18T00:42:36.526Z,27.60
2023-04-18T00:45:03.781Z,23.70
2023-04-18T00:47:27.302Z,26.60
2023-04-18T00:49:54.396Z,25.60
2023-04-18T00:52:18.888Z,24.80
2023-04-18T00:54:46.711Z,24.60
2023-04-18T00:57:10.609Z,25.70
2023-04-18T00:59:35.041Z,29.10
2023-04-18T01:02:08.561Z,24.80
2023-04-18T01:04:43.003Z,27.30
2023-04-18T01:07:07.774Z,26.00
2023-04-18T01:09:31.522Z,25.70
2023-04-18T01:11:55.625Z,23.90
2023-04-18T01:14:19.756Z,25.80
2023-04-18T01:16:43.453Z,26.30
2023-04-18T01:19:10.771Z,26.60
2023-04-18T01:21:35.522Z,23.60
2023-04-18T01:24:19.370Z,27.00
2023-04-18T01:26:47.510Z,25.60
2023-04-18T01:29:15.826Z,29.10
2023-04-18T01:31:40.770Z,24.70
2023-04-18T01:34:24.892Z,26.50
2023-04-18T01:36:50.733Z,26.00
2023-04-18T01:39:14.879Z,29.50
2023-04-18T01:41:38.601Z,25.20
2023-04-18T01:44:22.537Z,26.40
2023-04-18T01:46:46.016Z,24.30
2023-04-18T01:51:55.602Z,27.60
2023-04-18T01:56:44.449Z,28.10
2023-04-18T01:59:08.102Z,28.10
2023-04-18T02:01:52.066Z,27.10
2023-04-18T02:04:16.100Z,27.70
2023-04-18T02:06:48.707Z,29.30
2023-04-18T02:11:41.130Z,27.50
2023-04-18T02:14:07.653Z,30.80
2023-04-18T02:16:34.359Z,27.60
2023-04-18T02:19:18.222Z,28.70
2023-04-18T02:22:02.086Z,26.00
2023-04-18T02:24:34.455Z,26.00
2023-04-18T02:27:00.313Z,25.30
2023-04-18T02:29:23.850Z,29.30
2023-04-18T02:31:47.615Z,29.60
2023-04-18T02:34:12.034Z,26.60
2023-04-18T02:36:36.843Z,29.30
2023-04-18T02:39:00.284Z,31.00
2023-04-18T02:41:23.934Z,31.60
2023-04-18T02:43:47.572Z,26.80
2023-04-18T02:46:12.125Z,26.60
2023-04-18T02:48:35.768Z,28.80
2023-04-18T02:51:03.402Z,30.80
2023-04-18T02:53:47.607Z,31.70
2023-04-18T02:56:12.372Z,32.20
2023-04-18T02:58:59.056Z,28.90
2023-04-18T03:01:40.808Z,29.40
2023-04-18T03:04:07.698Z,30.30
2023-04-18T03:06:35.222Z,29.80
2023-04-18T03:08:58.869Z,31.70
2023-04-18T03:11:25.496Z,29.00
2023-04-18T03:13:53.114Z,28.10
2023-04-18T03:16:17.353Z,30.50
2023-04-18T03:18:40.914Z,31.30
2023-04-18T03:21:04.896Z,30.70
2023-04-18T03:23:48.873Z,29.30
2023-04-18T03:28:57.986Z,29.70
2023-04-18T03:31:42.284Z,31.40
2023-04-18T03:34:06.280Z,31.40
2023-04-18T03:36:30.748Z,30.80
2023-04-18T03:38:54.956Z,29.00
2023-04-18T03:41:18.822Z,30.30
2023-04-18T03:43:44.861Z,33.40
2023-04-18T03:46:11.061Z,30.20
2023-04-18T03:48:36.646Z,32.60
2023-04-18T03:51:20.254Z,29.70
2023-04-18T03:56:20.111Z,31.60
2023-04-18T03:59:04.005Z,29.80
2023-04-18T04:01:31.397Z,34.40
2023-04-18T04:04:03.028Z,31.40
2023-04-18T04:06:47.571Z,28.60
2023-04-18T04:09:13.964Z,28.70
2023-04-18T04:11:40.636Z,28.50
2023-04-18T04:14:16.997Z,30.50
2023-04-18T04:16:54.391Z,28.40
2023-04-18T04:19:30.834Z,29.10
2023-04-18T04:22:14.437Z,25.50
2023-04-18T04:24:39.017Z,26.10
2023-04-18T04:27:03.321Z,26.80
2023-04-18T04:29:48.730Z,28.10
2023-04-18T04:32:13.118Z,26.20
2023-04-18T04:34:40.669Z,26.00
2023-04-18T04:37:18.044Z,28.10
2023-04-18T04:40:02.186Z,27.30
2023-04-18T04:42:45.336Z,28.90
2023-04-18T04:45:13.421Z,28.90
2023-04-18T04:47:36.979Z,29.20
2023-04-18T04:50:00.607Z,27.50
2023-04-18T04:52:24.133Z,27.20
2023-04-18T04:54:47.774Z,28.30
2023-04-18T04:57:12.354Z,28.00
2023-04-18T04:59:36.849Z,26.30
2023-04-18T05:02:02.238Z,27.50
2023-04-18T05:04:26.992Z,27.50
2023-04-18T05:06:50.586Z,29.20
2023-04-18T05:09:14.047Z,26.60
2023-04-18T05:11:37.735Z,27.60
2023-04-18T05:14:01.223Z,28.90
2023-04-18T05:16:24.907Z,27.80
2023-04-18T05:18:48.641Z,29.70
2023-04-18T05:21:12.154Z,26.90
2023-04-18T05:23:36.419Z,26.60
2023-04-18T05:26:00.201Z,26.90
2023-04-18T05:28:26.325Z,27.50
2023-04-18T05:31:00.485Z,25.60
2023-04-18T05:33:24.421Z,24.50
2023-04-18T05:35:47.894Z,27.40
2023-04-18T05:38:11.429Z,26.70
2023-04-18T05:40:35.221Z,29.50
2023-04-18T05:42:58.692Z,25.40
2023-04-18T05:45:22.164Z,26.00
2023-04-18T05:47:46.124Z,25.60
2023-04-18T05:50:10.693Z,23.90
2023-04-18T05:52:34.087Z,21.10
2023-04-18T05:54:57.982Z,22.50
2023-04-18T05:57:21.381Z,22.70
2023-04-18T05:59:44.838Z,22.30
2023-04-18T06:02:12.850Z,24.10
2023-04-18T06:04:47.873Z,25.30
2023-04-18T06:07:11.765Z,21.70
2023-04-18T06:09:35.517Z,23.20
2023-04-18T06:11:59.262Z,22.90
2023-04-18T06:14:43.057Z,20.80
2023-04-18T06:17:09.606Z,22.70
2023-04-18T06:19:33.031Z,22.70
2023-04-18T06:21:56.823Z,24.10
2023-04-18T06:24:20.480Z,24.20
2023-04-18T06:26:51.570Z,24.00
2023-04-18T06:29:17.309Z,23.40
2023-04-18T06:31:44.714Z,21.20
2023-04-18T06:34:08.278Z,23.40
2023-04-18T06:36:32.038Z,19.70
2023-04-18T06:38:55.489Z,21.30
2023-04-18T06:41:18.887Z,22.50
2023-04-18T06:43:52.041Z,20.60
2023-04-18T06:46:23.058Z,21.90
2023-04-18T06:48:46.709Z,21.70
2023-04-18T06:51:10.218Z,20.10
2023-04-18T06:53:33.712Z,24.10
2023-04-18T06:56:07.048Z,21.40
2023-04-18T06:58:30.513Z,17.10
2023-04-18T07:00:53.973Z,20.90
2023-04-18T07:03:17.958Z,23.70
2023-04-18T07:05:41.601Z,20.30
2023-04-18T07:08:05.094Z,23.00
2023-04-18T07:10:31.358Z,25.90
2023-04-18T07:12:54.800Z,23.20
2023-04-18T07:15:18.419Z,25.20
2023-04-18T07:17:42.392Z,24.00
2023-04-18T07:20:08.410Z,24.60
2023-04-18T07:22:31.787Z,22.70
2023-04-18T07:24:55.320Z,26.50
2023-04-18T07:27:18.692Z,22.10
2023-04-18T07:29:42.212Z,22.40
2023-04-18T07:32:08.122Z,23.70
2023-04-18T07:34:33.180Z,27.00
2023-04-18T07:36:57.311Z,23.00
2023-04-18T07:39:20.939Z,24.20
2023-04-18T07:41:44.424Z,22.50
2023-04-18T07:44:07.856Z,25.40
2023-04-18T07:46:33.399Z,21.90
2023-04-18T07:48:56.853Z,24.60
2023-04-18T07:51:20.259Z,23.20
2023-04-18T07:53:44.092Z,22.70
2023-04-18T07:56:07.948Z,24.60
2023-04-18T07:58:31.751Z,22.50
2023-04-18T08:00:55.555Z,21.70
2023-04-18T08:03:19.300Z,26.00
2023-04-18T08:05:43.571Z,20.60
2023-04-18T08:08:08.054Z,21.50
2023-04-18T08:10:31.740Z,22.90
2023-04-18T08:12:55.096Z,20.30
2023-04-18T08:15:18.723Z,17.70
2023-04-18T08:17:44.437Z,22.40
2023-04-18T08:20:08.991Z,19.20
2023-04-18T08:22:32.800Z,20.30
2023-04-18T08:25:04.395Z,23.20
2023-04-18T08:27:30.019Z,16.90
2023-04-18T08:29:54.138Z,17.90
2023-04-18T08:32:17.477Z,16.20
2023-04-18T08:34:41.305Z,16.80
2023-04-18T08:37:05.250Z,19.90
2023-04-18T08:39:28.590Z,13.50
2023-04-18T08:41:58.926Z,17.20
2023-04-18T08:44:23.279Z,14.80
2023-04-18T08:46:46.669Z,15.00
2023-04-18T08:49:11.878Z,14.80
2023-04-18T08:51:36.953Z,15.90
2023-04-18T08:54:03.831Z,18.80
2023-04-18T08:56:27.959Z,15.90
2023-04-18T08:58:51.653Z,14.40
2023-04-18T09:01:17.118Z,15.50
2023-04-18T09:03:41.692Z,14.40
2023-04-18T09:06:11.835Z,17.20
2023-04-18T09:08:35.432Z,16.60
2023-04-18T09:11:25.366Z,14.90
2023-04-18T09:13:49.670Z,13.80
2023-04-18T09:16:13.736Z,18.30
2023-04-18T09:18:37.909Z,14.70
2023-04-18T09:21:18.736Z,15.70
2023-04-18T09:23:42.391Z,14.30
2023-04-18T09:26:05.832Z,14.40
2023-04-18T09:28:30.457Z,13.70
2023-04-18T09:30:55.465Z,15.80
2023-04-18T09:33:27.545Z,16.90
2023-04-18T09:35:51.306Z,14.20
2023-04-18T09:38:14.943Z,16.50
2023-04-18T09:40:38.432Z,15.80
2023-04-18T09:43:17.063Z,13.90
2023-04-18T09:45:40.593Z,15.20
2023-04-18T09:48:04.430Z,15.90
2023-04-18T09:50:28.073Z,14.40
2023-04-18T09:52:52.202Z,14.70
2023-04-18T09:55:17.408Z,16.20
2023-04-18T09:57:43.683Z,11.20
2023-04-18T10:00:16.139Z,12.80
2023-04-18T10:02:47.913Z,13.20
2023-04-18T10:05:13.528Z,14.10
2023-04-18T10:07:37.547Z,17.10
2023-04-18T10:10:01.010Z,16.20
2023-04-18T10:12:25.233Z,12.90
2023-04-18T10:14:49.075Z,13.50
2023-04-18T10:17:13.863Z,14.00
2023-04-18T10:19:40.543Z,13.10
2023-04-18T10:22:03.846Z,16.90
2023-04-18T10:24:52.258Z,16.80
2023-04-18T10:27:16.276Z,16.80
2023-04-18T10:29:56.834Z,14.30
2023-04-18T10:32:23.023Z,14.70
2023-04-18T10:37:12.556Z,19.20
2023-04-18T10:39:49.891Z,19.90
2023-04-18T10:42:13.685Z,17.10
2023-04-18T10:44:37.063Z,19.50
2023-04-18T10:47:22.307Z,15.30
2023-04-18T10:49:54.640Z,20.30
2023-04-18T10:52:18.521Z,14.10
2023-04-18T10:54:50.703Z,16.90
2023-04-18T10:57:14.770Z,16.70
2023-04-18T10:59:39.472Z,16.30
2023-04-18T11:02:13.896Z,16.20
2023-04-18T11:04:37.619Z,19.30
2023-04-18T11:07:01.963Z,15.10
2023-04-18T11:09:25.920Z,17.80
2023-04-18T11:12:03.374Z,17.90
2023-04-18T11:14:26.889Z,15.70
2023-04-18T11:16:50.290Z,20.40
2023-04-18T11:19:21.239Z,20.40
2023-04-18T11:21:44.944Z,15.30
2023-04-18T11:24:08.417Z,15.90
2023-04-18T11:26:31.979Z,17.60
2023-04-18T11:28:57.620Z,15.80
2023-04-18T11:31:23.987Z,18.90
2023-04-18T11:36:11.603Z,17.10
2023-04-18T11:38:35.655Z,16.60
2023-04-18T11:41:02.050Z,14.80
2023-04-18T11:43:26.085Z,13.70
2023-04-18T11:45:53.697Z,16.20
2023-04-18T11:48:17.177Z,14.30
2023-04-18T11:50:40.931Z,26.30
2023-04-18T11:53:04.307Z,14.80
2023-04-18T11:55:27.793Z,12.40
2023-04-18T11:57:52.782Z,14.30
2023-04-18T12:00:18.931Z,12.30
2023-04-18T12:02:43.738Z,15.60
2023-04-18T12:05:09.573Z,13.20
2023-04-18T12:07:38.272Z,15.00
2023-04-18T12:10:02.174Z,15.10
2023-04-18T12:12:25.866Z,16.70
2023-04-18T12:14:57.016Z,18.60
2023-04-18T12:17:20.528Z,14.60
2023-04-18T12:19:45.047Z,13.20
2023-04-18T12:22:09.266Z,12.00
2023-04-18T12:24:33.111Z,12.90
2023-04-18T12:26:57.282Z,13.90
2023-04-18T12:29:20.683Z,15.80
2023-04-18T12:31:44.054Z,13.40
2023-04-18T12:34:07.728Z,14.00
2023-04-18T12:36:31.165Z,12.50
2023-04-18T12:38:54.584Z,13.80
2023-04-18T12:41:18.224Z,13.60
2023-04-18T12:43:41.636Z,14.30
2023-04-18T12:46:05.305Z,13.00
2023-04-18T12:48:28.886Z,15.80
2023-04-18T12:50:52.313Z,14.90
2023-04-18T12:53:15.620Z,12.10
2023-04-18T12:55:39.370Z,16.30
2023-04-18T12:58:03.236Z,14.70
2023-04-18T13:00:29.383Z,14.60
2023-04-18T13:02:53.873Z,15.30
2023-04-18T13:05:20.474Z,11.20
2023-04-18T13:07:44.249Z,10.20
2023-04-18T13:10:10.895Z,19.60
2023-04-18T13:12:34.420Z,23.50
2023-04-18T13:14:58.034Z,15.10
2023-04-18T13:17:21.729Z,10.50
2023-04-18T13:19:45.294Z,14.50
2023-04-18T13:22:08.916Z,20.30
2023-04-18T13:24:32.629Z,14.80
2023-04-18T13:26:56.550Z,12.80
2023-04-18T13:29:20.130Z,11.10
2023-04-18T13:31:43.949Z,11.10
2023-04-18T13:34:07.414Z,15.90
2023-04-18T13:36:34.190Z,14.50
2023-04-18T13:38:58.364Z,13.90
2023-04-18T13:41:43.047Z,13.10
2023-04-18T13:44:07.728Z,11.60
2023-04-18T13:46:31.224Z,9.50
2023-04-18T13:48:54.629Z,10.30
2023-04-18T13:51:18.350Z,10.10
2023-04-18T13:53:41.771Z,8.70
2023-04-18T13:56:06.204Z,13.80
2023-04-18T13:58:29.925Z,8.90
2023-04-18T14:00:53.797Z,10.00
2023-04-18T14:03:17.347Z,11.50
2023-04-18T14:05:40.894Z,9.40
2023-04-18T14:08:04.716Z,13.50
2023-04-18T14:10:28.282Z,10.30
2023-04-18T14:12:51.918Z,8.70
2023-04-18T14:18:53.200Z,11.10
2023-04-18T14:21:16.595Z,8.40
2023-04-18T14:23:40.045Z,8.00
2023-04-18T14:26:04.705Z,9.50
2023-04-18T14:28:28.259Z,9.20
2023-04-18T14:30:51.929Z,9.30
2023-04-18T14:33:15.516Z,7.90
2023-04-18T14:35:39.276Z,8.30
2023-04-18T14:38:02.597Z,10.90
2023-04-18T14:40:26.804Z,9.00
2023-04-18T14:42:50.359Z,12.80
2023-04-18T14:45:15.554Z,8.20
2023-04-18T14:47:39.181Z,10.20
2023-04-18T14:50:02.659Z,7.40
2023-04-18T14:52:26.060Z,6.70
2023-04-18T14:54:49.815Z,18.30
2023-04-18T14:57:13.434Z,9.40
2023-04-18T14:59:36.793Z,10.20
2023-04-18T15:04:26.620Z,10.20
2023-04-18T15:06:50.250Z,6.90
2023-04-18T15:09:15.324Z,7.30
2023-04-18T15:11:38.668Z,8.90
2023-04-18T15:14:02.050Z,6.00
2023-04-18T15:16:25.828Z,7.40
2023-04-18T15:18:49.262Z,9.10
2023-04-18T15:21:12.923Z,9.30
2023-04-18T15:23:36.540Z,7.10
2023-04-18T15:25:59.908Z,6.20
2023-04-18T15:28:23.457Z,4.70
2023-04-18T15:30:47.517Z,8.00
2023-04-18T15:33:12.159Z,5.20
2023-04-18T15:35:35.706Z,5.10
2023-04-18T15:37:59.548Z,6.30
2023-04-18T15:40:22.970Z,6.10
2023-04-18T15:42:48.704Z,5.10
2023-04-18T15:45:13.068Z,5.40
2023-04-18T15:47:36.603Z,7.70
2023-04-18T15:50:00.158Z,6.20
2023-04-18T15:52:23.755Z,5.60
2023-04-18T15:54:47.178Z,4.60
2023-04-18T15:57:11.020Z,6.50
2023-04-18T15:59:35.371Z,5.70
2023-04-18T16:01:58.919Z,7.50
2023-04-18T16:04:23.444Z,8.80
2023-04-18T16:06:47.048Z,7.70
2023-04-18T16:09:10.406Z,8.30
2023-04-18T16:11:33.818Z,8.20
2023-04-18T16:13:57.304Z,7.10
2023-04-18T16:16:20.714Z,9.00
2023-04-18T16:18:44.171Z,6.90
2023-04-18T16:21:08.036Z,8.20
2023-04-18T16:23:32.180Z,7.00
2023-04-18T16:25:55.516Z,8.10
2023-04-18T16:28:19.114Z,6.70
2023-04-18T16:30:43.207Z,7.10
2023-04-18T16:33:06.653Z,6.10
2023-04-18T16:35:30.372Z,7.80
2023-04-18T16:37:53.752Z,8.10
2023-04-18T16:40:17.112Z,5.70
2023-04-18T16:42:41.149Z,12.80
2023-04-18T16:45:05.720Z,7.40
2023-04-18T16:47:29.748Z,6.50
2023-04-18T16:49:53.535Z,5.90
2023-04-18T16:52:17.088Z,6.60
2023-04-18T16:54:41.351Z,9.80
2023-04-18T16:57:05.214Z,7.20
2023-04-18T16:59:28.593Z,8.30
2023-04-18T17:01:52.081Z,11.50
2023-04-18T17:04:15.846Z,8.80
2023-04-18T17:06:41.484Z,7.90
2023-04-18T17:09:05.509Z,7.80
2023-04-18T17:11:29.555Z,9.60
2023-04-18T17:13:53.033Z,8.70
2023-04-18T17:16:16.854Z,8.80
2023-04-18T17:18:41.040Z,7.20
2023-04-18T17:21:04.654Z,9.40
2023-04-18T17:23:28.048Z,7.70
2023-04-18T17:25:51.801Z,8.50
2023-04-18T17:28:15.707Z,9.10
2023-04-18T17:30:41.280Z,8.10
2023-04-18T17:33:05.297Z,5.70
2023-04-18T17:35:29.033Z,10.20
2023-04-18T17:37:52.601Z,11.10
2023-04-18T17:40:16.472Z,15.70
2023-04-18T17:42:39.934Z,11.20
2023-04-18T17:45:03.582Z,8.10
2023-04-18T17:47:27.116Z,10.10
2023-04-18T17:49:50.565Z,8.50
2023-04-18T17:52:14.147Z,11.60
2023-04-18T17:54:37.589Z,7.00
2023-04-18T17:57:01.805Z,10.40
2023-04-18T17:59:28.128Z,11.20
2023-04-18T18:01:51.780Z,9.20
2023-04-18T18:04:15.734Z,9.10
2023-04-18T18:06:39.287Z,9.70
2023-04-18T18:09:03.274Z,9.20
2023-04-18T18:11:27.002Z,11.40
2023-04-18T18:13:53.932Z,9.00
2023-04-18T18:16:17.512Z,9.10
2023-04-18T18:18:40.890Z,9.90
2023-04-18T18:21:04.498Z,9.50
2023-04-18T18:23:28.849Z,7.80
2023-04-18T18:25:52.296Z,9.90
2023-04-18T18:28:15.718Z,8.00
2023-04-18T18:30:39.617Z,12.20
2023-04-18T18:33:03.110Z,7.40
2023-04-18T18:35:26.866Z,8.60
2023-04-18T18:37:50.461Z,7.30
2023-04-18T18:40:14.325Z,9.30
2023-04-18T18:42:38.429Z,7.80
2023-04-18T18:45:03.169Z,13.20
2023-04-18T18:47:26.687Z,9.20
2023-04-18T18:49:50.224Z,8.60
2023-04-18T18:52:13.946Z,9.60
2023-04-18T18:54:37.393Z,8.50
2023-04-18T18:57:02.118Z,10.50
2023-04-18T18:59:25.793Z,6.70
2023-04-18T19:01:49.181Z,7.10
2023-04-18T19:04:12.694Z,8.30
2023-04-18T19:06:36.373Z,11.50
2023-04-18T19:08:59.818Z,11.80
2023-04-18T19:11:23.391Z,12.10
2023-04-18T19:13:47.023Z,7.10
2023-04-18T19:16:10.450Z,10.00
2023-04-18T19:18:34.052Z,11.30
2023-04-18T19:20:57.721Z,9.80
2023-04-18T19:23:23.142Z,8.80
2023-04-18T19:25:46.962Z,12.10
2023-04-18T19:28:10.439Z,8.60
2023-04-18T19:30:33.880Z,10.60
2023-04-18T19:32:57.396Z,11.50
2023-04-18T19:35:21.376Z,13.00
2023-04-18T19:37:44.790Z,8.60
2023-04-18T19:40:10.140Z,9.70
2023-04-18T19:42:33.778Z,13.00
2023-04-18T19:44:58.384Z,12.90
2023-04-18T19:47:21.811Z,9.00
2023-04-18T19:49:45.350Z,9.00
2023-04-18T19:52:08.727Z,9.40
2023-04-18T19:54:32.950Z,10.40
2023-04-18T19:56:58.106Z,11.00
2023-04-18T19:59:21.953Z,12.80
2023-04-18T20:01:45.411Z,10.80
2023-04-18T20:04:09.260Z,9.50
2023-04-18T20:06:33.032Z,9.80
2023-04-18T20:08:56.642Z,7.90
2023-04-18T20:11:21.502Z,8.90
2023-04-18T20:13:45.264Z,13.40
2023-04-18T20:16:10.307Z,9.60
2023-04-18T20:18:35.157Z,9.30
2023-04-18T20:20:58.547Z,10.70
2023-04-18T20:23:21.954Z,9.50
2023-04-18T20:25:45.520Z,11.30
2023-04-18T20:28:08.903Z,10.30
2023-04-18T20:30:34.112Z,9.30
2023-04-18T20:32:57.808Z,13.10
2023-04-18T20:35:21.687Z,11.70
2023-04-18T20:37:45.158Z,11.00
2023-04-18T20:40:10.652Z,13.30
2023-04-18T20:42:34.152Z,9.70
2023-04-18T20:44:58.146Z,10.30
2023-04-18T20:47:21.822Z,10.70
2023-04-18T20:49:45.607Z,12.90
2023-04-18T20:52:09.217Z,12.80
2023-04-18T20:54:32.710Z,11.70
2023-04-18T20:56:56.094Z,12.00
2023-04-18T20:59:19.612Z,11.50
2023-04-18T21:01:43.370Z,12.10
2023-04-18T21:04:06.919Z,11.20
2023-04-18T21:06:33.556Z,12.60
2023-04-18T21:08:57.365Z,11.70
2023-04-18T21:11:20.716Z,9.70
2023-04-18T21:13:44.310Z,12.10
2023-04-18T21:18:37.094Z,12.60
2023-04-18T21:21:00.576Z,12.00
2023-04-18T21:23:26.505Z,12.10
2023-04-18T21:25:49.936Z,10.80
2023-04-18T21:28:13.355Z,10.70
2023-04-18T21:30:37.296Z,15.80
2023-04-18T21:33:00.775Z,12.10
2023-04-18T21:35:24.887Z,15.00
2023-04-18T21:37:48.742Z,12.90
2023-04-18T21:40:12.851Z,13.70
2023-04-18T21:42:36.329Z,13.90
2023-04-18T21:45:00.559Z,13.10
2023-04-18T21:47:25.186Z,14.80
2023-04-18T21:49:50.032Z,13.20
2023-04-18T21:52:34.054Z,12.70
2023-04-18T21:55:18.084Z,20.00
2023-04-18T21:58:02.051Z,11.40
2023-04-18T22:00:28.013Z,12.30
2023-04-18T22:02:51.464Z,12.00
2023-04-18T22:05:16.003Z,10.50
2023-04-18T22:07:54.435Z,11.90
2023-04-18T22:10:22.123Z,9.30
2023-04-18T22:12:50.688Z,11.90
2023-04-18T22:15:14.368Z,8.50
2023-04-18T22:17:49.665Z,8.70
2023-04-18T22:20:27.466Z,10.40
2023-04-18T22:22:51.000Z,10.70
2023-04-18T22:25:14.366Z,9.20
2023-04-18T22:27:38.129Z,9.90
2023-04-18T22:30:13.280Z,12.70
2023-04-18T22:32:36.958Z,12.70
2023-04-18T22:35:01.103Z,9.50
2023-04-18T22:37:24.957Z,9.90
2023-04-18T22:39:48.295Z,10.00
2023-04-18T22:42:11.574Z,10.80
2023-04-18T22:44:37.949Z,9.40
2023-04-18T22:47:04.090Z,11.00
2023-04-18T22:49:29.962Z,9.20
2023-04-18T22:51:53.866Z,12.10
2023-04-18T22:54:17.459Z,9.70
2023-04-18T22:56:41.142Z,10.70
2023-04-18T22:59:25.122Z,10.60
2023-04-18T23:01:48.648Z,8.30
2023-04-18T23:04:12.295Z,9.30
2023-04-18T23:06:38.233Z,9.10
2023-04-18T23:09:02.399Z,8.90
2023-04-18T23:11:26.211Z,8.50
2023-04-18T23:13:50.114Z,9.60
2023-04-18T23:16:13.498Z,17.70
2023-04-18T23:18:37.020Z,11.90
2023-04-18T23:21:00.838Z,11.60
2023-04-18T23:23:24.621Z,10.90
2023-04-18T23:25:48.032Z,12.60
2023-04-18T23:28:13.010Z,13.00
2023-04-18T23:30:36.575Z,10.20
2023-04-18T23:33:09.437Z,10.40
2023-04-18T23:35:33.279Z,11.00
2023-04-18T23:37:56.830Z,10.10
2023-04-18T23:40:21.067Z,11.00
2023-04-18T23:42:44.887Z,9.80
2023-04-18T23:45:09.399Z,8.70
2023-04-18T23:47:33.122Z,8.60
2023-04-18T23:49:56.964Z,9.70
2023-04-18T23:52:23.025Z,8.20
2023-04-18T23:54:46.388Z,9.50
2023-04-18T23:57:13.302Z,9.80
2023-04-18T23:59:36.780Z,9.20
